Time;durP1;ratioP1;P1;durP2;ratioP2;P2;SDS_P1;SDS_P2;PMS_P1;PMS_P2;Temp;Humidity;BMP_temperature;BMP_pressure;BME280_temperature;BME280_humidity;BME280_pressure;Samples;Min_cycle;Max_cycle;Signal;HPM_P1;HPM_P2
2022/03/31 00:00:00;;;;;;;12.70;5.10;;;;;;;2.60;34.48;98672.31;5112296;28;20067;-64
2022/03/31 00:02:26;;;;;;;15.90;4.77;;;;;;;2.56;34.57;98682.22;5095449;28;20063;-64
2022/03/31 00:04:52;;;;;;;26.90;7.67;;;;;;;2.54;34.49;98689.38;5112038;28;20587;-64
2022/03/31 00:07:17;;;;;;;20.37;6.70;;;;;;;2.51;34.84;98686.16;5112120;28;20567;-64
2022/03/31 00:09:43;;;;;;;30.83;9.20;;;;;;;2.43;34.97;98684.19;5114445;28;20040;-64
2022/03/31 00:12:09;;;;;;;27.47;7.90;;;;;;;2.48;34.86;98695.13;5113490;27;20043;-64
2022/03/31 00:14:35;;;;;;;48.30;12.93;;;;;;;2.38;35.18;98682.94;5111682;28;20057;-65
2022/03/31 00:17:00;;;;;;;23.93;9.67;;;;;;;2.41;35.15;98691.38;5112949;28;20095;-65
2022/03/31 00:19:26;;;;;;;18.23;6.63;;;;;;;2.28;35.41;98705.63;5112219;28;20542;-64
2022/03/31 00:21:52;;;;;;;15.43;5.63;;;;;;;2.33;35.38;98706.06;5112681;28;20055;-64
2022/03/31 00:24:17;;;;;;;25.30;10.63;;;;;;;2.28;35.59;98703.84;5077601;28;20910;-64
2022/03/31 00:26:43;;;;;;;23.23;8.30;;;;;;;2.25;35.64;98714.59;5111554;28;20050;-64
2022/03/31 00:29:09;;;;;;;12.83;5.37;;;;;;;2.29;35.84;98720.41;5077638;28;20468;-64
2022/03/31 00:31:34;;;;;;;10.47;4.87;;;;;;;2.27;35.90;98710.06;5112649;28;20040;-64
2022/03/31 00:34:00;;;;;;;13.53;4.97;;;;;;;2.28;36.15;98703.00;5077497;28;20107;-64
2022/03/31 00:36:25;;;;;;;14.50;5.00;;;;;;;2.30;36.18;98706.34;5111631;28;20066;-64
2022/03/31 00:41:37;;;;;;;15.00;5.10;;;;;;;2.47;36.55;98713.59;5112556;28;20075;-65
2022/03/31 00:44:04;;;;;;;12.90;6.27;;;;;;;2.55;36.36;98706.75;5112746;28;20097;-64
2022/03/31 00:46:30;;;;;;;7.63;3.90;;;;;;;2.37;36.81;98699.63;5111260;28;20055;-69
2022/03/31 00:48:56;;;;;;;6.07;3.57;;;;;;;2.46;36.51;98696.25;5111322;28;20047;-64
2022/03/31 00:51:21;;;;;;;8.50;4.30;;;;;;;2.47;36.40;98709.22;5111123;28;20051;-64
2022/03/31 00:53:47;;;;;;;8.70;4.20;;;;;;;2.43;36.70;98717.47;5112302;28;20169;-64
2022/03/31 00:56:14;;;;;;;8.10;4.67;;;;;;;2.45;36.65;98705.88;5111555;28;20043;-64
2022/03/31 00:58:40;;;;;;;8.17;4.90;;;;;;;2.32;36.59;98705.25;5077094;28;20035;-64
2022/03/31 01:01:05;;;;;;;10.50;5.20;;;;;;;2.34;36.62;98705.94;5093718;28;20104;-65
2022/03/31 01:03:31;;;;;;;10.03;5.20;;;;;;;2.33;36.69;98720.00;5110826;28;20172;-65
2022/03/31 01:05:58;;;;;;;11.90;6.53;;;;;;;2.30;36.80;98722.06;5093255;28;20078;-65
2022/03/31 01:08:23;;;;;;;13.90;7.43;;;;;;;2.36;36.78;98721.53;5110103;28;20039;-65
2022/03/31 01:10:50;;;;;;;15.60;7.20;;;;;;;2.45;36.94;98716.34;5091155;28;20040;-64
2022/03/31 01:13:16;;;;;;;15.30;6.77;;;;;;;2.19;37.34;98714.25;5108417;28;20042;-65
2022/03/31 01:15:41;;;;;;;12.70;5.77;;;;;;;2.17;37.34;98714.38;5091306;28;20661;-65
2022/03/31 01:18:07;;;;;;;11.30;5.27;;;;;;;2.13;37.56;98715.63;5074797;28;20039;-64
2022/03/31 01:20:35;;;;;;;15.07;4.70;;;;;;;2.09;37.58;98719.44;5125035;27;20112;-65
2022/03/31 01:23:03;;;;;;;10.17;5.60;;;;;;;2.26;37.84;98718.03;5074937;28;20047;-64
2022/03/31 01:25:28;;;;;;;11.37;5.27;;;;;;;2.09;37.76;98716.81;5110899;28;20062;-65
2022/03/31 01:27:54;;;;;;;8.80;4.23;;;;;;;1.92;37.83;98690.38;5076534;28;20500;-64
2022/03/31 01:30:22;;;;;;;6.57;3.33;;;;;;;1.99;38.45;98687.13;5093527;28;20043;-64
2022/03/31 01:32:48;;;;;;;11.17;4.53;;;;;;;2.02;38.44;98718.28;5093487;28;20047;-64
2022/03/31 01:35:15;;;;;;;9.70;4.20;;;;;;;1.96;38.44;98716.19;5111493;28;20100;-64
2022/03/31 01:37:42;;;;;;;8.43;4.50;;;;;;;1.96;38.82;98724.03;5092836;28;20409;-64
2022/03/31 01:40:08;;;;;;;16.13;4.57;;;;;;;1.72;39.50;98705.13;5093194;28;20059;-65
2022/03/31 01:42:34;;;;;;;11.47;4.43;;;;;;;1.71;39.76;98706.91;5109965;28;20500;-65
2022/03/31 01:45:00;;;;;;;7.13;4.40;;;;;;;1.77;39.94;98718.63;5093433;28;20061;-64
2022/03/31 01:47:26;;;;;;;6.00;4.13;;;;;;;1.71;39.99;98721.75;5110176;28;20104;-64
2022/03/31 01:49:52;;;;;;;9.37;4.63;;;;;;;1.68;40.19;98727.25;5109797;28;20069;-64
2022/03/31 01:52:17;;;;;;;8.13;4.43;;;;;;;1.46;40.49;98712.44;5093184;28;20168;-64
2022/03/31 01:54:43;;;;;;;9.13;4.53;;;;;;;1.65;40.05;98730.09;5111167;28;20484;-64
2022/03/31 01:57:11;;;;;;;6.87;4.17;;;;;;;1.56;40.59;98730.84;5110208;28;20647;-65
2022/03/31 01:59:43;;;;;;;9.87;4.50;;;;;;;1.77;40.26;98726.50;5109676;28;20035;-64
2022/03/31 02:02:10;;;;;;;12.27;5.03;;;;;;;1.70;40.69;98730.56;5093407;28;20113;-65
2022/03/31 02:04:36;;;;;;;12.23;4.87;;;;;;;1.29;40.86;98699.09;5092837;28;20043;-65
2022/03/31 02:07:02;;;;;;;12.63;4.87;;;;;;;1.45;40.88;98730.88;5110478;28;20108;-64
2022/03/31 02:09:28;;;;;;;11.40;5.27;;;;;;;1.49;41.13;98729.72;5110136;28;20122;-65
2022/03/31 02:11:54;;;;;;;9.47;4.20;;;;;;;1.40;41.15;98739.09;5091986;28;20043;-65
2022/03/31 02:14:20;;;;;;;8.87;4.80;;;;;;;1.24;41.57;98712.53;5108112;28;20039;-64
2022/03/31 02:16:46;;;;;;;8.40;4.70;;;;;;;1.39;41.56;98742.69;5091764;28;20086;-65
2022/03/31 02:19:12;;;;;;;10.33;4.80;;;;;;;1.17;41.64;98710.53;5108561;28;20127;-65
2022/03/31 02:21:38;;;;;;;13.23;5.07;;;;;;;1.32;41.97;98743.31;5108292;28;20067;-64
2022/03/31 02:24:04;;;;;;;10.10;5.53;;;;;;;1.29;41.85;98744.34;5108948;28;20038;-64
2022/03/31 02:26:30;;;;;;;13.57;5.60;;;;;;;1.23;41.93;98738.81;5075558;28;20055;-64
2022/03/31 02:28:56;;;;;;;12.27;6.10;;;;;;;1.19;42.14;98732.13;5109516;28;20047;-64
2022/03/31 02:31:21;;;;;;;18.97;5.93;;;;;;;1.23;42.00;98733.56;5109495;28;20035;-64
2022/03/31 02:33:47;;;;;;;10.67;5.67;;;;;;;1.27;42.40;98740.22;5110776;28;20093;-65
2022/03/31 02:36:13;;;;;;;14.77;7.07;;;;;;;1.28;42.27;98739.25;5109521;28;20039;-65
2022/03/31 02:38:38;;;;;;;12.77;7.13;;;;;;;1.28;42.35;98741.88;5092623;28;20040;-64
2022/03/31 02:41:07;;;;;;;13.47;7.90;;;;;;;1.27;42.52;98743.66;5092584;28;20067;-64
2022/03/31 02:43:32;;;;;;;11.77;7.53;;;;;;;1.37;42.72;98751.59;5109819;28;20052;-64
2022/03/31 02:45:59;;;;;;;13.17;7.53;;;;;;;1.44;42.59;98755.41;5109451;28;20044;-64
2022/03/31 02:48:25;;;;;;;13.67;7.10;;;;;;;1.35;42.73;98756.13;5112296;28;20042;-64
2022/03/31 02:50:51;;;;;;;18.03;8.37;;;;;;;1.32;42.74;98743.31;5113302;28;20165;-68
2022/03/31 02:56:01;;;;;;;14.40;7.17;;;;;;;1.40;42.60;98757.41;5082122;28;20036;-68
2022/03/31 02:58:27;;;;;;;11.97;7.10;;;;;;;1.43;42.57;98761.59;5079360;28;20084;-67
2022/03/31 03:00:54;;;;;;;14.60;7.43;;;;;;;1.38;42.75;98761.13;5079237;28;20039;-69
2022/03/31 03:03:21;;;;;;;16.90;7.23;;;;;;;1.24;42.83;98724.78;5096427;28;20138;-70
2022/03/31 03:05:47;;;;;;;17.30;8.00;;;;;;;1.42;42.69;98752.06;5096341;28;20121;-66
2022/03/31 03:08:14;;;;;;;11.37;6.57;;;;;;;1.40;42.93;98767.03;5113185;28;20096;-66
2022/03/31 03:10:40;;;;;;;15.43;7.77;;;;;;;1.49;43.34;98767.16;5112772;28;20039;-66
2022/03/31 03:13:07;;;;;;;11.10;7.33;;;;;;;1.37;43.01;98728.06;5079260;28;20043;-66
2022/03/31 03:15:34;;;;;;;15.13;8.13;;;;;;;1.42;43.06;98759.91;5113029;28;20031;-68
2022/03/31 03:17:59;;;;;;;12.63;7.77;;;;;;;1.42;43.18;98770.38;5113128;27;20044;-65
2022/03/31 03:20:25;;;;;;;16.50;8.70;;;;;;;1.54;43.61;98772.84;5113327;28;20508;-65
2022/03/31 03:22:53;;;;;;;21.53;9.17;;;;;;;1.62;43.47;98774.84;5112846;28;20050;-65
2022/03/31 03:25:23;;;;;;;20.75;10.15;;;;;;;1.52;43.38;98779.97;5112087;28;20032;-67
2022/03/31 03:27:49;;;;;;;23.10;11.07;;;;;;;1.54;43.82;98770.22;5110997;28;20044;-66
2022/03/31 03:30:17;;;;;;;20.20;11.57;;;;;;;1.63;43.39;98768.66;5060474;28;20058;-66
2022/03/31 03:32:42;;;;;;;18.43;10.20;;;;;;;1.60;43.65;98774.13;5109862;28;20058;-67
2022/03/31 03:35:10;;;;;;;16.70;10.10;;;;;;;1.73;43.77;98766.97;5076022;28;20498;-71
2022/03/31 03:37:37;;;;;;;18.50;10.23;;;;;;;1.77;43.88;98784.06;5094396;28;20457;-66
2022/03/31 03:40:05;;;;;;;18.23;9.70;;;;;;;1.52;43.81;98745.97;5058863;28;20185;-68
2022/03/31 03:42:32;;;;;;;21.50;10.23;;;;;;;1.80;43.84;98775.16;5103205;27;20032;-67
2022/03/31 03:44:58;;;;;;;22.10;9.50;;;;;;;1.69;43.84;98773.41;5111300;28;20036;-66
2022/03/31 03:47:23;;;;;;;14.03;9.00;;;;;;;1.80;43.97;98768.13;5094108;28;20087;-69
2022/03/31 03:49:49;;;;;;;16.40;8.47;;;;;;;1.80;43.77;98762.88;5119544;27;20067;-66
2022/03/31 03:52:17;;;;;;;11.20;7.40;;;;;;;1.96;43.78;98776.41;5078053;28;20048;-70
2022/03/31 03:54:42;;;;;;;10.17;6.90;;;;;;;2.01;43.85;98779.47;5096277;28;20046;-65
2022/03/31 03:57:08;;;;;;;15.73;6.80;;;;;;;1.93;43.82;98783.66;5077074;28;20043;-70
2022/03/31 03:59:42;;;;;;;15.37;6.83;;;;;;;2.03;43.96;98779.34;5103719;27;20055;-66
2022/03/31 04:02:07;;;;;;;14.57;7.50;;;;;;;2.08;44.00;98785.88;5095021;28;20043;-66
2022/03/31 04:04:33;;;;;;;17.00;7.97;;;;;;;2.08;44.23;98785.88;5093983;28;20035;-68
2022/03/31 04:06:59;;;;;;;11.87;7.20;;;;;;;2.08;44.04;98780.63;5082583;28;20119;-67
2022/03/31 04:09:25;;;;;;;12.97;7.47;;;;;;;2.30;44.04;98780.53;5109425;28;20172;-67
2022/03/31 04:11:52;;;;;;;12.20;8.00;;;;;;;2.36;43.83;98787.88;5109375;28;20043;-68
2022/03/31 04:14:18;;;;;;;14.03;8.10;;;;;;;2.48;43.55;98786.84;5076908;28;20046;-66
2022/03/31 04:16:44;;;;;;;14.80;8.53;;;;;;;2.40;43.55;98781.41;5108708;28;20044;-70
2022/03/31 04:19:10;;;;;;;16.67;8.57;;;;;;;2.46;43.29;98795.81;5092337;28;20511;-68
2022/03/31 04:21:36;;;;;;;14.13;7.70;;;;;;;2.63;43.32;98793.41;5093537;28;20124;-68
2022/03/31 04:24:03;;;;;;;12.30;7.77;;;;;;;2.61;43.47;98791.91;5060215;28;20500;-68
2022/03/31 04:26:29;;;;;;;12.47;7.17;;;;;;;2.55;43.26;98802.91;5110531;28;20159;-68
2022/03/31 04:28:55;;;;;;;11.80;6.77;;;;;;;2.59;43.50;98805.13;5110417;28;20130;-67
2022/03/31 04:31:20;;;;;;;10.90;7.27;;;;;;;2.51;43.41;98794.44;5076489;28;20039;-67
2022/03/31 04:33:46;;;;;;;14.83;7.63;;;;;;;2.63;43.33;98796.03;5060041;28;20042;-67
2022/03/31 04:36:12;;;;;;;10.63;7.60;;;;;;;2.62;43.38;98794.38;5075184;28;20146;-68
2022/03/31 04:38:37;;;;;;;14.57;6.97;;;;;;;2.79;43.15;98798.19;5074838;28;20066;-66
2022/03/31 04:41:03;;;;;;;10.70;6.10;;;;;;;2.90;43.08;98803.38;5109665;28;20054;-67
2022/03/31 04:43:29;;;;;;;12.00;6.80;;;;;;;2.98;42.81;98804.38;5058500;28;20571;-66
2022/03/31 04:45:55;;;;;;;12.93;7.33;;;;;;;3.02;42.81;98800.53;5112795;28;20040;-68
2022/03/31 04:48:20;;;;;;;12.43;6.13;;;;;;;3.09;42.84;98790.38;5075680;28;20066;-66
2022/03/31 04:50:46;;;;;;;9.47;5.83;;;;;;;3.01;42.60;98764.75;5092779;28;20047;-67
2022/03/31 04:53:12;;;;;;;14.47;6.53;;;;;;;3.27;42.26;98800.09;5093271;28;20549;-67
2022/03/31 04:55:39;;;;;;;14.67;6.60;;;;;;;3.58;42.43;98807.91;5109803;28;20146;-67
2022/03/31 04:58:05;;;;;;;12.77;6.37;;;;;;;3.56;41.95;98794.94;5076130;28;20531;-67
2022/03/31 05:00:31;;;;;;;9.40;5.43;;;;;;;3.68;41.93;98799.09;5091406;28;20067;-67
2022/03/31 05:02:59;;;;;;;10.63;6.23;;;;;;;3.79;42.07;98800.75;5091932;28;20382;-67
2022/03/31 05:05:25;;;;;;;9.47;6.10;;;;;;;3.91;41.69;98803.13;5092124;28;20093;-67
2022/03/31 05:07:51;;;;;;;10.60;6.50;;;;;;;4.09;41.33;98798.03;5109228;28;20589;-66
2022/03/31 05:10:17;;;;;;;11.20;6.50;;;;;;;4.54;40.42;98804.38;5076007;28;20044;-67
2022/03/31 05:12:42;;;;;;;9.87;6.00;;;;;;;4.80;39.80;98815.94;5092386;28;20040;-69
2022/03/31 05:15:08;;;;;;;8.97;5.77;;;;;;;4.95;39.22;98802.19;5059625;28;20093;-67
2022/03/31 05:17:35;;;;;;;10.67;5.10;;;;;;;5.18;38.90;98813.22;5092787;28;20389;-67
2022/03/31 05:20:09;;;;;;;7.80;5.30;;;;;;;5.24;38.91;98820.53;5092499;28;20418;-67
2022/03/31 05:22:35;;;;;;;9.20;5.27;;;;;;;5.25;38.58;98816.94;5110104;28;20454;-67
2022/03/31 05:25:01;;;;;;;13.30;5.30;;;;;;;5.30;38.43;98803.31;5109893;28;20047;-68
2022/03/31 05:27:29;;;;;;;13.27;5.07;;;;;;;5.49;38.10;98819.84;5093415;28;20079;-68
2022/03/31 05:29:54;;;;;;;12.63;5.60;;;;;;;5.45;38.31;98820.28;5059003;28;20063;-67
2022/03/31 05:32:20;;;;;;;10.20;5.40;;;;;;;5.50;38.28;98826.81;5059027;28;20489;-67
2022/03/31 05:34:46;;;;;;;8.33;4.73;;;;;;;5.70;38.11;98817.81;5075531;28;20405;-68
2022/03/31 05:37:11;;;;;;;7.30;4.53;;;;;;;5.89;37.57;98816.91;5058949;28;20035;-71
2022/03/31 05:39:37;;;;;;;7.00;4.53;;;;;;;6.10;37.67;98831.47;5092987;28;20091;-68
2022/03/31 05:42:04;;;;;;;7.17;4.63;;;;;;;6.31;37.35;98839.91;5092857;28;20044;-67
2022/03/31 05:44:30;;;;;;;10.77;4.50;;;;;;;6.52;36.87;98835.16;5075568;28;20067;-68
2022/03/31 05:46:55;;;;;;;7.83;4.60;;;;;;;6.57;36.63;98835.53;5109693;28;20063;-67
2022/03/31 05:49:24;;;;;;;6.33;3.90;;;;;;;6.54;36.91;98827.91;5092845;28;20089;-67
2022/03/31 05:51:50;;;;;;;7.30;4.23;;;;;;;6.71;36.52;98836.78;5075394;28;20044;-68
2022/03/31 05:54:16;;;;;;;12.57;4.63;;;;;;;6.93;36.33;98842.38;5092834;28;20036;-67
2022/03/31 05:56:43;;;;;;;8.37;4.17;;;;;;;6.87;36.38;98848.28;5093172;28;20040;-68
2022/03/31 05:59:11;;;;;;;14.30;4.57;;;;;;;6.86;36.58;98843.16;5110017;28;20390;-67
2022/03/31 06:01:37;;;;;;;13.60;4.83;;;;;;;6.74;36.95;98853.16;5109465;28;20044;-67
2022/03/31 06:04:03;;;;;;;10.70;5.30;;;;;;;6.61;37.30;98836.06;5092261;28;20043;-67
2022/03/31 06:06:29;;;;;;;15.73;4.50;;;;;;;6.99;36.80;98851.53;5075588;28;20078;-67
2022/03/31 06:08:54;;;;;;;20.73;5.47;;;;;;;7.34;36.45;98847.91;5075388;28;20058;-67
2022/03/31 06:11:20;;;;;;;20.23;4.53;;;;;;;7.76;35.73;98856.72;5074930;28;20082;-68
2022/03/31 06:13:46;;;;;;;12.50;5.03;;;;;;;8.05;34.99;98862.44;5074988;28;20035;-68
2022/03/31 06:16:11;;;;;;;11.80;5.27;;;;;;;8.03;34.98;98853.84;5109593;28;20047;-67
2022/03/31 06:18:38;;;;;;;19.13;5.33;;;;;;;8.26;34.77;98855.75;5092757;28;20046;-67
2022/03/31 06:21:03;;;;;;;10.80;6.03;;;;;;;8.30;34.41;98841.19;5091761;28;20056;-67
2022/03/31 06:23:29;;;;;;;15.73;4.90;;;;;;;8.56;34.33;98867.53;5091880;28;20526;-68
2022/03/31 06:25:57;;;;;;;16.90;5.90;;;;;;;8.65;33.89;98839.25;5092523;28;20040;-67
2022/03/31 06:28:25;;;;;;;16.97;5.47;;;;;;;9.11;33.55;98873.81;5109217;28;20400;-67
2022/03/31 06:30:51;;;;;;;11.97;4.37;;;;;;;8.97;33.61;98877.16;5108630;28;20043;-68
2022/03/31 06:33:20;;;;;;;9.90;3.80;;;;;;;8.96;33.63;98859.63;5075793;28;20397;-67
2022/03/31 06:35:46;;;;;;;12.73;3.60;;;;;;;8.85;33.73;98875.00;5110611;28;20047;-68
2022/03/31 06:38:12;;;;;;;13.07;4.43;;;;;;;8.83;34.06;98884.91;5075519;28;20178;-72
2022/03/31 06:40:40;;;;;;;14.40;4.07;;;;;;;8.59;34.41;98861.94;5092823;28;20135;-67
2022/03/31 06:43:06;;;;;;;8.13;3.47;;;;;;;8.69;34.56;98862.56;5092646;28;20199;-67
2022/03/31 06:45:32;;;;;;;9.40;4.30;;;;;;;8.84;34.17;98873.34;5075100;28;20043;-67
2022/03/31 06:47:59;;;;;;;7.90;3.80;;;;;;;8.72;34.73;98872.84;5058477;28;20046;-67
2022/03/31 06:50:24;;;;;;;7.57;3.45;;;;;;;8.58;34.41;98839.06;5074897;28;20049;-68
2022/03/31 06:52:50;;;;;;;8.87;3.70;;;;;;;8.85;34.58;98867.88;5108137;28;20131;-67
2022/03/31 06:55:16;;;;;;;10.07;3.95;;;;;;;8.89;34.00;98832.13;5091985;28;20089;-67
2022/03/31 06:57:42;;;;;;;12.10;4.13;;;;;;;9.31;33.50;98880.44;5108806;28;20075;-72
2022/03/31 07:00:08;;;;;;;7.75;3.85;;;;;;;9.80;33.03;98878.47;5091867;28;20512;-68
2022/03/31 07:02:34;;;;;;;10.55;3.90;;;;;;;9.49;33.01;98873.09;5058509;28;20036;-67
2022/03/31 07:05:00;;;;;;;12.23;3.72;;;;;;;9.10;33.65;98856.25;5091262;28;20397;-67
2022/03/31 07:07:26;;;;;;;14.20;3.75;;;;;;;9.26;33.65;98856.25;5057889;28;20047;-67
2022/03/31 07:09:52;;;;;;;15.68;4.07;;;;;;;9.68;33.17;98856.81;5091411;28;20052;-67
2022/03/31 07:12:18;;;;;;;12.93;3.90;;;;;;;10.15;32.21;98859.44;5108827;28;20040;-67
2022/03/31 07:14:44;;;;;;;12.32;5.05;;;;;;;10.49;31.47;98836.00;5092148;28;20038;-67
2022/03/31 07:17:11;;;;;;;18.27;5.82;;;;;;;10.77;31.17;98865.50;5092142;28;20051;-67
2022/03/31 07:19:37;;;;;;;17.35;6.53;;;;;;;10.94;30.80;98867.00;5074555;28;20039;-67
2022/03/31 07:22:03;;;;;;;10.00;3.30;;;;;;;11.33;30.30;98878.31;5074091;28;20059;-67
2022/03/31 07:24:29;;;;;;;17.95;3.13;;;;;;;11.43;29.94;98865.56;5108493;28;20071;-67
2022/03/31 07:26:55;;;;;;;20.23;4.57;;;;;;;11.33;29.82;98865.81;5091437;28;20075;-67
2022/03/31 07:29:21;;;;;;;13.25;3.92;;;;;;;11.40;29.82;98864.09;5110102;28;20038;-67
2022/03/31 07:31:47;;;;;;;10.55;3.30;;;;;;;11.54;29.59;98873.91;5107753;28;20047;-68
2022/03/31 07:34:12;;;;;;;14.85;2.85;;;;;;;10.96;29.93;98870.34;5075262;28;20078;-73
2022/03/31 07:36:38;;;;;;;8.10;2.67;;;;;;;10.78;30.34;98873.28;5111684;28;20455;-68
2022/03/31 07:39:04;;;;;;;10.20;3.40;;;;;;;10.50;30.88;98881.97;5111765;28;20036;-67
2022/03/31 07:41:30;;;;;;;9.88;3.30;;;;;;;10.11;31.68;98869.59;5094566;28;20052;-69
2022/03/31 07:43:55;;;;;;;11.05;3.72;;;;;;;10.15;31.67;98867.38;5077807;28;20040;-67
2022/03/31 07:46:22;;;;;;;13.50;6.22;;;;;;;10.56;31.07;98874.13;5112861;28;20411;-68
2022/03/31 07:48:47;;;;;;;16.60;3.85;;;;;;;10.72;30.75;98879.31;5111795;28;20042;-67
2022/03/31 07:51:13;;;;;;;7.93;3.17;;;;;;;10.85;30.66;98876.06;5112855;28;20441;-69
2022/03/31 07:53:38;;;;;;;9.02;3.47;;;;;;;10.93;30.38;98866.19;5112177;28;20044;-68
2022/03/31 07:56:09;;;;;;;7.72;3.58;;;;;;;11.06;30.24;98873.53;5094684;28;20056;-67
2022/03/31 07:58:37;;;;;;;12.52;3.10;;;;;;;10.92;30.12;98869.84;5094894;28;20059;-67
2022/03/31 08:01:03;;;;;;;6.90;3.25;;;;;;;10.01;31.17;98866.25;5077895;28;20100;-68
2022/03/31 08:03:29;;;;;;;7.28;3.85;;;;;;;9.68;32.06;98864.75;5111626;28;20043;-68
2022/03/31 08:05:57;;;;;;;7.45;3.40;;;;;;;9.17;33.08;98859.91;5112579;28;20088;-67
2022/03/31 08:08:23;;;;;;;6.68;3.30;;;;;;;9.25;33.34;98859.91;5061052;28;20039;-67
2022/03/31 08:10:50;;;;;;;13.07;3.83;;;;;;;8.96;33.87;98866.72;5077039;28;20134;-67
2022/03/31 08:13:26;;;;;;;10.93;3.70;;;;;;;9.26;33.80;98858.91;5110107;28;20042;-67
2022/03/31 08:15:56;;;;;;;11.63;3.80;;;;;;;9.52;33.39;98861.31;5112266;28;20105;-66
2022/03/31 08:18:32;;;;;;;11.52;4.35;;;;;;;8.92;34.20;98873.34;5077087;28;20062;-66
2022/03/31 08:20:58;;;;;;;16.98;5.90;;;;;;;8.76;34.66;98868.03;5110886;28;20051;-69
2022/03/31 08:23:25;;;;;;;14.00;4.18;;;;;;;8.83;34.23;98861.09;5077333;28;20066;-67
2022/03/31 08:25:51;;;;;;;6.35;3.85;;;;;;;8.51;34.77;98840.75;5093888;28;20430;-66
2022/03/31 08:28:16;;;;;;;9.40;3.88;;;;;;;8.58;35.02;98855.78;5060533;28;20481;-66
2022/03/31 08:30:43;;;;;;;14.73;3.80;;;;;;;8.79;34.98;98847.38;5060516;28;20146;-64
2022/03/31 08:33:09;;;;;;;7.50;4.00;;;;;;;8.85;34.56;98835.28;5110603;28;20423;-66
2022/03/31 08:35:35;;;;;;;5.75;3.70;;;;;;;8.38;34.94;98862.38;5076742;28;20066;-66
2022/03/31 08:38:00;;;;;;;6.50;3.50;;;;;;;8.20;35.87;98860.81;5077571;28;20082;-65
2022/03/31 08:40:26;;;;;;;8.07;4.00;;;;;;;7.94;36.28;98817.78;5077184;28;20051;-69
2022/03/31 08:42:53;;;;;;;7.10;3.95;;;;;;;8.10;36.30;98852.22;5111524;28;20056;-65
2022/03/31 08:45:20;;;;;;;7.88;4.18;;;;;;;7.76;36.61;98840.88;5110430;28;20039;-66
2022/03/31 08:47:48;;;;;;;9.00;3.87;;;;;;;8.01;36.57;98846.06;5110567;28;20046;-66
2022/03/31 08:50:13;;;;;;;9.23;3.77;;;;;;;8.23;36.38;98844.66;5111601;28;20067;-67
2022/03/31 08:52:39;;;;;;;11.30;4.10;;;;;;;8.06;36.35;98829.72;5110552;28;20082;-66
2022/03/31 08:55:06;;;;;;;8.35;3.85;;;;;;;8.65;35.38;98826.84;5076426;28;20151;-66
2022/03/31 08:57:42;;;;;;;9.23;4.85;;;;;;;8.70;35.62;98806.03;5076386;28;20047;-66
2022/03/31 09:00:09;;;;;;;8.98;3.78;;;;;;;8.49;35.39;98840.06;5093328;28;20039;-66
2022/03/31 09:02:35;;;;;;;7.57;3.65;;;;;;;8.18;35.58;98831.91;5111046;28;20066;-66
2022/03/31 09:05:04;;;;;;;8.32;3.45;;;;;;;8.19;36.31;98832.72;5111153;28;20500;-66
2022/03/31 09:07:30;;;;;;;5.82;3.65;;;;;;;7.86;36.31;98838.91;5092859;28;20162;-65
2022/03/31 09:09:55;;;;;;;8.30;3.70;;;;;;;7.73;36.33;98843.84;5110191;28;20134;-65
2022/03/31 09:12:24;;;;;;;6.67;3.93;;;;;;;7.71;36.17;98835.22;5110006;28;20035;-66
2022/03/31 09:14:49;;;;;;;11.10;3.90;;;;;;;7.68;36.12;98840.84;5110872;28;20044;-65
2022/03/31 09:17:16;;;;;;;8.32;3.53;;;;;;;7.77;36.08;98834.59;5109846;28;20119;-66
2022/03/31 09:19:45;;;;;;;6.93;3.60;;;;;;;7.75;35.91;98839.22;5093084;28;20098;-66
2022/03/31 09:22:11;;;;;;;7.93;3.10;;;;;;;8.08;35.51;98836.50;5110708;28;20060;-66
2022/03/31 09:24:37;;;;;;;5.73;3.73;;;;;;;7.90;35.24;98841.06;5093690;28;20040;-66
2022/03/31 09:27:04;;;;;;;14.07;4.78;;;;;;;8.27;35.09;98820.38;5109524;28;20431;-66
2022/03/31 09:29:32;;;;;;;6.97;3.28;;;;;;;8.94;34.20;98828.97;5109038;28;20035;-66
2022/03/31 09:32:13;;;;;;;5.47;3.40;;;;;;;9.18;32.33;98827.13;5075252;28;20055;-66
2022/03/31 09:34:40;;;;;;;6.15;3.35;;;;;;;8.81;33.42;98813.59;5109450;28;20048;-66
2022/03/31 09:37:06;;;;;;;6.32;3.17;;;;;;;9.04;32.73;98788.06;5108917;28;20159;-66
2022/03/31 09:39:31;;;;;;;8.77;3.42;;;;;;;8.76;32.75;98809.81;5075230;28;20142;-66
2022/03/31 09:41:57;;;;;;;8.98;3.42;;;;;;;8.66;32.75;98812.63;5092363;28;20043;-66
2022/03/31 09:44:23;;;;;;;7.70;3.78;;;;;;;8.19;34.25;98815.06;5109001;28;20104;-64
2022/03/31 09:46:50;;;;;;;7.53;3.75;;;;;;;8.08;34.03;98822.47;5109222;28;20112;-64
2022/03/31 09:49:21;;;;;;;4.22;3.00;;;;;;;8.10;34.67;98807.25;5109346;28;20090;-64
2022/03/31 09:51:56;;;;;;;8.18;3.38;;;;;;;8.20;34.60;98811.41;5092176;28;20036;-65
2022/03/31 09:54:24;;;;;;;5.10;2.93;;;;;;;8.20;33.95;98800.00;5108665;28;20047;-65
2022/03/31 09:56:50;;;;;;;4.13;3.10;;;;;;;8.37;33.61;98801.69;5108330;28;20093;-65
2022/03/31 09:59:16;;;;;;;10.95;3.40;;;;;;;8.54;32.98;98798.91;5092121;28;20096;-65
2022/03/31 10:01:43;;;;;;;10.32;2.88;;;;;;;8.96;32.65;98816.41;5092255;28;20129;-65
2022/03/31 10:04:10;;;;;;;11.50;3.15;;;;;;;9.10;31.90;98823.69;5108785;28;20070;-65
2022/03/31 10:06:38;;;;;;;7.72;2.83;;;;;;;9.18;31.79;98810.41;5058089;28;20036;-65
2022/03/31 10:09:05;;;;;;;7.03;3.10;;;;;;;9.11;31.69;98801.47;5108395;28;20123;-65
2022/03/31 10:11:39;;;;;;;5.35;2.88;;;;;;;9.36;31.28;98800.44;5091207;28;20126;-65
2022/03/31 10:14:35;;;;;;;4.68;2.58;;;;;;;8.98;31.67;98802.00;5091282;28;20492;-65
2022/03/31 10:17:05;;;;;;;5.13;2.95;;;;;;;8.59;32.83;98801.06;5108602;28;20047;-65
2022/03/31 10:19:42;;;;;;;5.93;2.72;;;;;;;8.89;32.94;98797.72;5109289;28;20416;-65
2022/03/31 10:25:05;;;;;;;6.70;3.47;;;;;;;8.10;35.85;98800.13;5076788;28;20808;-65
2022/03/31 10:27:36;;;;;;;7.90;3.10;;;;;;;7.78;37.49;98792.13;5108815;28;20040;-65
2022/03/31 10:30:11;;;;;;;7.10;3.30;;;;;;;7.97;37.85;98785.75;5108619;28;20048;-65
2022/03/31 10:32:37;;;;;;;7.40;3.47;;;;;;;7.86;38.62;98776.31;5108231;28;20051;-65
2022/03/31 10:35:03;;;;;;;4.97;3.40;;;;;;;7.59;39.51;98778.38;5090678;28;20887;-65
2022/03/31 10:37:36;;;;;;;8.53;3.30;;;;;;;7.96;39.02;98782.28;5109552;28;20131;-66
2022/03/31 10:40:08;;;;;;;7.43;3.43;;;;;;;7.72;39.00;98787.50;5088585;28;20047;-66
2022/03/31 10:42:34;;;;;;;6.37;3.20;;;;;;;7.72;39.00;98784.84;5072886;28;20055;-65
2022/03/31 10:45:08;;;;;;;6.87;3.90;;;;;;;8.04;38.80;98784.13;5102574;28;20162;-66
2022/03/31 10:47:35;;;;;;;4.37;2.93;;;;;;;8.16;39.55;98761.66;5102997;28;20116;-65
2022/03/31 10:50:01;;;;;;;5.33;3.33;;;;;;;8.47;38.90;98782.03;5087329;28;20048;-66
2022/03/31 10:52:32;;;;;;;5.67;3.57;;;;;;;8.65;38.40;98784.50;5090649;28;20354;-65
2022/03/31 10:55:14;;;;;;;4.82;3.13;;;;;;;9.00;38.27;98784.13;5109026;28;20053;-65
2022/03/31 10:57:44;;;;;;;6.75;3.80;;;;;;;8.97;37.80;98781.81;5092211;28;20051;-65
2022/03/31 11:00:14;;;;;;;5.13;3.13;;;;;;;8.44;38.24;98778.91;5074659;28;20047;-66
2022/03/31 11:02:45;;;;;;;6.20;3.40;;;;;;;8.74;38.65;98770.28;5091789;28;20086;-66
2022/03/31 11:05:12;;;;;;;6.07;3.17;;;;;;;8.15;37.54;98752.88;5073896;28;20038;-66
2022/03/31 11:07:38;;;;;;;4.40;3.23;;;;;;;8.21;38.54;98764.63;5058086;28;20093;-65
2022/03/31 11:10:13;;;;;;;5.57;3.20;;;;;;;8.41;39.21;98766.81;5077041;28;20066;-64
2022/03/31 11:12:40;;;;;;;9.67;3.20;;;;;;;8.26;40.05;98767.63;5078340;28;20097;-65
2022/03/31 11:15:09;;;;;;;6.00;3.27;;;;;;;8.05;39.98;98765.44;5094270;28;20043;-65
2022/03/31 11:17:36;;;;;;;7.80;3.37;;;;;;;7.84;39.98;98766.88;5094891;28;20039;-65
2022/03/31 11:20:13;;;;;;;7.43;3.37;;;;;;;7.95;41.19;98756.00;5111914;28;20130;-66
2022/03/31 11:22:46;;;;;;;7.87;4.37;;;;;;;7.89;40.84;98731.03;5113070;28;20549;-65
2022/03/31 11:25:13;;;;;;;8.13;3.30;;;;;;;7.79;40.15;98761.25;5095380;28;20050;-66
2022/03/31 11:27:40;;;;;;;8.77;3.57;;;;;;;7.74;41.88;98752.97;5078162;28;20503;-65
2022/03/31 11:30:30;;;;;;;5.37;3.70;;;;;;;7.76;41.54;98711.38;5094853;28;20483;-66
2022/03/31 11:32:56;;;;;;;7.50;3.40;;;;;;;8.11;40.65;98748.09;5094385;28;20048;-67
2022/03/31 11:35:25;;;;;;;6.00;3.20;;;;;;;8.19;40.54;98722.50;5111952;28;20050;-65
2022/03/31 11:38:11;;;;;;;10.40;3.80;;;;;;;7.71;41.42;98761.22;5112785;28;20039;-65
2022/03/31 11:40:40;;;;;;;7.43;3.73;;;;;;;7.07;43.16;98713.47;5094557;28;20032;-64
2022/03/31 11:43:09;;;;;;;5.30;3.87;;;;;;;7.62;44.00;98751.63;5111824;28;20135;-64